Time;durP1;ratioP1;P1;durP2;ratioP2;P2;SDS_P1;SDS_P2;PMS_P1;PMS_P2;Temp;Humidity;BMP_temperature;BMP_pressure;BME280_temperature;BME280_humidity;BME280_pressure;Samples;Min_cycle;Max_cycle;Signal;HPM_P1;HPM_P2
2022/05/25 00:00:10;;;;;;;19.40;13.00;;;;;;;10.04;90.85;101159.97;5050659;28;20144;-69
2022/05/25 00:02:37;;;;;;;21.48;13.77;;;;;;;10.06;90.70;101164.28;5052731;28;20032;-68
2022/05/25 00:05:04;;;;;;;19.55;12.95;;;;;;;10.10;90.08;101168.50;5052283;28;20043;-68
2022/05/25 00:07:30;;;;;;;19.40;12.68;;;;;;;10.11;89.70;101178.19;5052171;28;20156;-68
2022/05/25 00:09:55;;;;;;;24.23;13.77;;;;;;;10.06;89.42;101171.41;5052215;28;20147;-67
2022/05/25 00:12:21;;;;;;;21.48;13.75;;;;;;;9.96;90.61;101173.72;5050690;28;20052;-67
2022/05/25 00:14:48;;;;;;;22.05;15.00;;;;;;;9.92;90.75;101177.50;5052457;28;20072;-68
2022/05/25 00:17:14;;;;;;;22.67;15.23;;;;;;;9.98;90.71;101176.28;5050815;28;20040;-68
2022/05/25 00:22:23;;;;;;;22.23;14.65;;;;;;;9.90;90.65;101190.06;5036621;28;20037;-68
2022/05/25 00:24:49;;;;;;;20.52;13.32;;;;;;;9.95;90.82;101179.16;5032566;28;20195;-67
2022/05/25 00:27:14;;;;;;;21.23;14.20;;;;;;;9.75;91.67;101190.91;5029499;28;20141;-68
2022/05/25 00:29:39;;;;;;;20.95;13.98;;;;;;;9.80;91.57;101186.19;5030293;28;20040;-68
2022/05/25 00:32:06;;;;;;;21.52;14.32;;;;;;;9.88;91.72;101185.75;5030165;28;20052;-67
2022/05/25 00:34:32;;;;;;;22.40;14.60;;;;;;;9.91;90.79;101185.59;5032465;28;20041;-69
2022/05/25 00:36:58;;;;;;;20.90;13.43;;;;;;;9.89;91.87;101188.34;5032107;28;20033;-68
2022/05/25 00:39:24;;;;;;;23.45;13.63;;;;;;;9.81;91.60;101182.56;5031679;28;20744;-69
2022/05/25 00:41:52;;;;;;;21.63;13.27;;;;;;;9.85;92.13;101186.78;5031857;28;20770;-68
2022/05/25 00:44:18;;;;;;;20.77;13.32;;;;;;;9.94;91.24;101188.06;5031466;28;20655;-68
2022/05/25 00:46:44;;;;;;;17.70;12.73;;;;;;;9.91;90.86;101191.78;5035067;28;20120;-68
2022/05/25 00:49:31;;;;;;;18.48;12.60;;;;;;;9.75;91.51;101196.22;5040414;28;20040;-68
2022/05/25 00:52:04;;;;;;;20.00;12.57;;;;;;;9.74;91.54;101195.38;5055626;28;20111;-69
2022/05/25 00:54:34;;;;;;;19.83;12.90;;;;;;;9.68;91.98;101189.50;5053525;28;20230;-67
2022/05/25 00:57:05;;;;;;;16.88;11.73;;;;;;;9.66;91.55;101192.25;5054019;28;20082;-68
2022/05/25 00:59:38;;;;;;;18.40;11.93;;;;;;;9.50;92.45;101199.34;5054354;28;20040;-68
2022/05/25 01:02:03;;;;;;;18.70;11.73;;;;;;;9.57;92.79;101204.25;5054686;28;20029;-69
2022/05/25 01:04:29;;;;;;;17.95;11.05;;;;;;;9.65;92.11;101200.31;5053703;28;20494;-69
2022/05/25 01:07:22;;;;;;;18.65;12.18;;;;;;;9.55;92.35;101203.47;5054056;28;20029;-69
2022/05/25 01:10:22;;;;;;;20.40;12.02;;;;;;;9.57;92.84;101203.38;5055033;28;20068;-69
2022/05/25 01:12:59;;;;;;;16.45;11.48;;;;;;;9.58;92.24;101195.31;5055630;28;20044;-69
2022/05/25 01:15:50;;;;;;;18.48;12.02;;;;;;;9.67;91.62;101201.09;5054120;28;20040;-69
2022/05/25 01:18:28;;;;;;;20.38;10.30;;;;;;;9.64;91.53;101198.56;5054852;28;20040;-68
2022/05/25 01:21:17;;;;;;;13.88;10.15;;;;;;;9.47;92.44;101200.34;5051904;28;20036;-68
2022/05/25 01:23:56;;;;;;;14.07;9.38;;;;;;;9.55;92.54;101207.94;5033947;28;20048;-69
2022/05/25 01:26:37;;;;;;;14.93;10.10;;;;;;;9.46;92.51;101211.09;5034073;28;20970;-69
2022/05/25 01:29:02;;;;;;;15.68;9.88;;;;;;;9.47;92.32;101208.34;5032463;28;20060;-69
2022/05/25 01:32:01;;;;;;;15.80;10.60;;;;;;;9.47;92.49;101213.66;5034321;28;20074;-69
2022/05/25 01:34:33;;;;;;;16.15;10.48;;;;;;;9.47;92.49;101212.78;5035074;28;20051;-69
2022/05/25 01:37:29;;;;;;;18.20;10.20;;;;;;;9.37;92.72;101212.41;5035058;28;20055;-69
2022/05/25 01:40:07;;;;;;;16.73;10.93;;;;;;;9.39;92.73;101215.88;5030485;28;20060;-69
2022/05/25 01:42:57;;;;;;;19.50;11.50;;;;;;;9.42;93.50;101218.34;5034988;28;20033;-69
2022/05/25 01:45:25;;;;;;;17.63;11.40;;;;;;;9.30;93.62;101216.34;5034053;28;20049;-70
2022/05/25 01:47:52;;;;;;;16.88;11.45;;;;;;;9.30;93.73;101213.69;5034267;28;20775;-69
2022/05/25 01:50:23;;;;;;;16.45;11.27;;;;;;;9.36;92.97;101213.38;5047118;28;20072;-69
2022/05/25 01:52:54;;;;;;;17.38;10.32;;;;;;;9.31;93.26;101216.25;5053299;28;20865;-70
2022/05/25 01:55:34;;;;;;;16.98;10.90;;;;;;;9.30;93.04;101211.88;5053283;28;20045;-68
2022/05/25 01:58:08;;;;;;;18.42;11.75;;;;;;;9.22;93.45;101214.06;5052879;28;20036;-69
2022/05/25 02:00:36;;;;;;;18.13;11.43;;;;;;;9.38;92.95;101224.78;5055271;28;20040;-69
2022/05/25 02:06:25;;;;;;;20.85;12.48;;;;;;;9.28;92.84;101219.06;5055375;28;20447;-69
2022/05/25 02:09:20;;;;;;;18.67;12.10;;;;;;;9.18;93.37;101219.63;5052822;28;20131;-70
2022/05/25 02:11:48;;;;;;;19.95;11.88;;;;;;;9.28;92.77;101216.41;5054395;28;20534;-68
2022/05/25 02:14:16;;;;;;;19.63;12.13;;;;;;;9.22;93.14;101221.19;5053307;28;20044;-69
2022/05/25 02:17:04;;;;;;;20.70;13.95;;;;;;;9.19;92.75;101224.91;5054801;28;20036;-70
2022/05/25 02:19:58;;;;;;;21.00;12.13;;;;;;;9.20;92.98;101223.09;5054517;28;20044;-69
2022/05/25 02:22:38;;;;;;;20.02;11.88;;;;;;;9.21;93.23;101225.66;5016817;28;20092;-69
2022/05/25 02:25:27;;;;;;;16.20;11.07;;;;;;;9.21;93.24;101231.00;5012256;28;20100;-69
2022/05/25 02:28:10;;;;;;;21.55;11.52;;;;;;;9.15;93.34;101233.13;5026646;28;20040;-69
2022/05/25 02:30:40;;;;;;;17.95;11.18;;;;;;;9.16;92.87;101230.38;5033012;28;20501;-69
2022/05/25 02:33:15;;;;;;;17.70;10.60;;;;;;;9.17;93.12;101236.53;5032949;28;20057;-69
2022/05/25 02:35:44;;;;;;;16.60;11.52;;;;;;;9.11;93.17;101237.72;5032321;28;20452;-69
2022/05/25 02:38:10;;;;;;;17.67;11.18;;;;;;;9.10;93.79;101240.47;5032398;28;20052;-69
2022/05/25 02:40:38;;;;;;;22.10;11.77;;;;;;;9.04;93.19;101237.19;5032655;28;20033;-69
2022/05/25 02:43:05;;;;;;;16.40;11.23;;;;;;;9.03;92.99;101245.22;5033058;28;20090;-69
2022/05/25 02:45:30;;;;;;;19.10;11.77;;;;;;;9.04;93.19;101237.19;5032263;28;20148;-69
2022/05/25 02:47:56;;;;;;;19.92;13.02;;;;;;;8.98;93.32;101237.47;5032904;28;20041;-68
2022/05/25 02:50:21;;;;;;;21.80;13.75;;;;;;;9.01;94.05;101247.09;5046731;28;20049;-69
2022/05/25 02:52:47;;;;;;;20.05;12.15;;;;;;;9.08;93.44;101245.84;5054454;28;20093;-69
2022/05/25 02:55:13;;;;;;;22.80;11.95;;;;;;;9.04;93.50;101249.63;5021923;28;20064;-68
2022/05/25 02:57:39;;;;;;;15.55;12.15;;;;;;;9.05;93.80;101252.19;5015115;28;20044;-69
2022/05/25 03:00:07;;;;;;;19.15;12.40;;;;;;;9.08;93.44;101253.81;5013905;28;20036;-68
2022/05/25 03:02:34;;;;;;;19.15;12.57;;;;;;;8.95;94.36;101252.75;5014025;28;20083;-69
2022/05/25 03:04:59;;;;;;;22.77;12.98;;;;;;;8.88;94.54;101259.28;5013514;28;20141;-68
2022/05/25 03:07:25;;;;;;;22.17;12.55;;;;;;;8.97;93.90;101250.84;5013312;28;20773;-69
2022/05/25 03:09:51;;;;;;;21.48;13.20;;;;;;;8.92;94.35;101259.06;5012866;28;20045;-68
2022/05/25 03:12:16;;;;;;;19.55;12.82;;;;;;;8.97;94.77;101254.38;5012490;28;20083;-69
2022/05/25 03:14:42;;;;;;;21.30;12.57;;;;;;;9.04;93.96;101266.44;5013792;28;20038;-70
2022/05/25 03:17:12;;;;;;;21.15;13.10;;;;;;;8.97;94.42;101264.16;5012161;28;20043;-69
2022/05/25 03:19:39;;;;;;;23.00;13.80;;;;;;;8.93;94.28;101275.88;5012677;28;20048;-69
2022/05/25 03:22:04;;;;;;;22.40;13.13;;;;;;;8.97;93.32;101269.47;5012655;28;20775;-69
2022/05/25 03:24:30;;;;;;;25.85;14.40;;;;;;;8.92;93.87;101276.81;5013466;28;20045;-69
2022/05/25 03:26:55;;;;;;;23.40;13.93;;;;;;;8.87;94.38;101274.38;5018215;28;20111;-68
2022/05/25 03:29:21;;;;;;;24.02;14.98;;;;;;;8.93;93.95;101283.84;5032154;28;20048;-68
2022/05/25 03:31:46;;;;;;;21.67;13.60;;;;;;;8.95;93.78;101282.84;5032073;28;20037;-68
2022/05/25 03:34:12;;;;;;;25.35;14.05;;;;;;;8.85;94.94;101281.59;5031705;28;20041;-68
2022/05/25 03:36:37;;;;;;;31.67;15.57;;;;;;;8.97;94.20;101282.78;5019830;28;20067;-68
2022/05/25 03:39:03;;;;;;;24.88;15.32;;;;;;;9.10;93.32;101283.03;5010420;28;20099;-68
2022/05/25 03:41:28;;;;;;;28.95;14.68;;;;;;;9.04;92.92;101284.19;5019704;28;20086;-68
2022/05/25 03:43:54;;;;;;;26.15;15.18;;;;;;;9.11;93.24;101296.25;5028683;28;20070;-68
2022/05/25 03:46:19;;;;;;;22.05;12.82;;;;;;;8.98;93.58;101292.47;5031249;28;20563;-67
2022/05/25 03:48:45;;;;;;;24.77;16.33;;;;;;;9.14;93.79;101298.78;5033971;28;20041;-68
2022/05/25 03:51:10;;;;;;;26.88;16.63;;;;;;;9.13;93.49;101297.03;5052107;28;20044;-68
2022/05/25 03:53:36;;;;;;;25.80;16.10;;;;;;;9.08;94.00;101289.25;5034957;28;20826;-67
2022/05/25 03:56:01;;;;;;;30.83;15.52;;;;;;;9.29;92.87;101291.81;5013876;28;20045;-68
2022/05/25 03:58:27;;;;;;;28.17;15.60;;;;;;;9.26;92.90;101299.94;5012415;28;20755;-67
2022/05/25 04:00:52;;;;;;;26.92;14.95;;;;;;;9.36;92.89;101305.66;5011929;28;20037;-68
2022/05/25 04:03:18;;;;;;;24.92;15.95;;;;;;;9.38;92.90;101303.78;5012037;28;20046;-67
2022/05/25 04:05:44;;;;;;;25.90;13.80;;;;;;;9.34;92.73;101303.94;5013455;28;20049;-68
2022/05/25 04:08:10;;;;;;;31.52;15.95;;;;;;;9.42;92.60;101308.84;5012312;28;20057;-67
2022/05/25 04:10:35;;;;;;;24.95;15.48;;;;;;;9.47;92.74;101300.63;5012210;28;20761;-68
2022/05/25 04:13:01;;;;;;;26.50;14.88;;;;;;;9.59;92.20;101292.03;5012599;28;20049;-67
2022/05/25 04:15:29;;;;;;;23.65;14.05;;;;;;;9.57;92.12;101300.09;5012828;28;20033;-68
2022/05/25 04:17:55;;;;;;;28.23;16.33;;;;;;;9.52;92.60;101307.44;5013235;28;20056;-68
2022/05/25 04:20:21;;;;;;;27.13;15.75;;;;;;;9.63;92.36;101298.03;5013060;28;20449;-67
2022/05/25 04:22:47;;;;;;;27.23;16.63;;;;;;;9.74;91.92;101290.34;5034840;28;20122;-68
2022/05/25 04:25:16;;;;;;;26.23;15.63;;;;;;;9.83;91.46;101293.38;5035728;28;20160;-68
2022/05/25 04:27:43;;;;;;;30.25;16.73;;;;;;;9.97;90.89;101294.47;5036890;28;20486;-68
2022/05/25 04:30:13;;;;;;;25.80;16.23;;;;;;;9.94;90.89;101294.63;5035870;28;20080;-69
2022/05/25 04:32:39;;;;;;;27.38;17.33;;;;;;;10.08;90.83;101294.75;5034654;28;20124;-68
2022/05/25 04:35:05;;;;;;;30.92;18.27;;;;;;;10.11;90.91;101287.44;5035115;28;20037;-68
2022/05/25 04:37:48;;;;;;;26.42;16.42;;;;;;;10.20;90.90;101293.22;5016203;28;20045;-67
2022/05/25 04:40:16;;;;;;;31.15;17.15;;;;;;;10.18;91.02;101295.09;5032989;28;20136;-67
2022/05/25 04:42:41;;;;;;;31.00;18.15;;;;;;;10.32;90.41;101300.56;5033303;28;20098;-68
2022/05/25 04:45:07;;;;;;;27.45;17.27;;;;;;;10.71;89.18;101300.16;5033925;28;20044;-68
2022/05/25 04:47:37;;;;;;;28.00;18.42;;;;;;;12.19;83.18;101304.66;5035544;28;20037;-68
2022/05/25 04:50:06;;;;;;;26.60;15.60;;;;;;;12.22;82.97;101290.25;5030442;28;20080;-68
2022/05/25 04:52:33;;;;;;;23.90;15.60;;;;;;;12.24;83.03;101296.34;5032887;28;20187;-68
2022/05/25 04:54:58;;;;;;;23.25;14.00;;;;;;;12.75;81.07;101295.78;5034860;28;20037;-68
2022/05/25 04:57:24;;;;;;;23.20;14.82;;;;;;;12.71;81.66;101300.50;5029147;28;20025;-68
2022/05/25 04:59:52;;;;;;;21.80;12.88;;;;;;;14.62;74.27;101298.06;5015628;28;20025;-68
2022/05/25 05:02:17;;;;;;;20.92;13.40;;;;;;;15.77;68.53;101292.97;5014846;28;20742;-69
2022/05/25 05:04:43;;;;;;;16.55;11.90;;;;;;;15.76;69.06;101301.13;5021640;28;20045;-68
2022/05/25 05:07:09;;;;;;;16.13;10.35;;;;;;;15.92;67.26;101298.13;5018363;28;20108;-68
2022/05/25 05:09:36;;;;;;;15.98;11.93;;;;;;;16.41;66.66;101303.13;5035844;28;20045;-68
2022/05/25 05:12:01;;;;;;;14.10;10.23;;;;;;;16.25;66.74;101306.19;5031580;28;20160;-69
2022/05/25 05:14:27;;;;;;;15.80;10.57;;;;;;;16.29;66.30;101306.81;5024522;28;20457;-69
2022/05/25 05:16:58;;;;;;;15.45;10.05;;;;;;;16.66;65.04;101306.50;5033705;28;20120;-69
2022/05/25 05:19:32;;;;;;;14.30;9.65;;;;;;;16.29;65.72;101302.28;5028005;28;20037;-69
2022/05/25 05:22:07;;;;;;;14.30;10.65;;;;;;;16.65;66.86;101305.66;5024436;28;20120;-69
2022/05/25 05:24:32;;;;;;;14.05;9.25;;;;;;;16.26;66.31;101305.19;5027571;28;20080;-69
2022/05/25 05:26:58;;;;;;;14.93;10.32;;;;;;;16.26;67.19;101301.66;5016831;28;20756;-69
2022/05/25 05:29:24;;;;;;;12.07;9.23;;;;;;;16.91;65.63;101302.69;5017625;28;20045;-69
2022/05/25 05:31:50;;;;;;;13.35;8.73;;;;;;;16.94;65.42;101306.00;5019186;28;20041;-68
2022/05/25 05:34:16;;;;;;;13.90;9.95;;;;;;;16.91;65.37;101308.09;5016321;28;20033;-69
2022/05/25 05:36:54;;;;;;;12.55;8.40;;;;;;;16.45;65.35;101307.28;5014606;28;20565;-69
2022/05/25 05:39:23;;;;;;;10.88;8.48;;;;;;;16.15;67.24;101307.91;5016191;28;20975;-69
2022/05/25 05:42:03;;;;;;;12.13;8.77;;;;;;;16.56;65.73;101298.31;5013670;28;20041;-69
2022/05/25 05:44:33;;;;;;;11.93;8.57;;;;;;;16.97;64.80;101300.38;5016894;28;20655;-69
2022/05/25 05:47:00;;;;;;;12.73;8.23;;;;;;;17.20;65.25;101305.66;5014470;28;20047;-68
2022/05/25 05:49:26;;;;;;;16.52;8.45;;;;;;;17.07;64.20;101287.84;5027708;28;20115;-67
2022/05/25 05:51:51;;;;;;;13.25;8.48;;;;;;;17.50;63.47;101305.75;5053211;28;20618;-67
2022/05/25 05:54:18;;;;;;;10.73;7.65;;;;;;;17.67;62.39;101304.34;5053346;28;20068;-67
2022/05/25 05:56:44;;;;;;;12.20;7.90;;;;;;;17.28;64.49;101309.44;5053264;28;20055;-67
2022/05/25 05:59:09;;;;;;;11.57;7.85;;;;;;;17.22;63.20;101312.66;5053387;28;20104;-67
2022/05/25 06:01:36;;;;;;;10.77;7.25;;;;;;;18.04;62.46;101303.88;5053702;28;20129;-67
2022/05/25 06:04:02;;;;;;;11.55;7.53;;;;;;;17.99;61.35;101298.88;5052849;28;20583;-67
2022/05/25 06:06:28;;;;;;;10.20;7.55;;;;;;;17.90;62.36;101298.81;5054489;28;20066;-67
2022/05/25 06:08:53;;;;;;;11.38;7.90;;;;;;;18.14;61.94;101306.63;5054510;28;20916;-67
2022/05/25 06:11:20;;;;;;;9.52;7.85;;;;;;;18.20;61.14;101306.94;5053916;28;20114;-68
2022/05/25 06:13:46;;;;;;;15.75;7.63;;;;;;;17.75;63.45;101312.63;5054700;28;20141;-67
2022/05/25 06:21:40;;;;;;;10.30;7.60;;;;;;;17.64;62.98;101310.00;5045044;28;20145;-67
2022/05/25 06:24:05;;;;;;;13.63;6.88;;;;;;;18.60;60.60;101311.47;5033096;28;20036;-67
2022/05/25 06:26:32;;;;;;;12.57;7.95;;;;;;;18.98;60.47;101312.59;5014381;28;20053;-67
2022/05/25 06:29:01;;;;;;;9.27;6.70;;;;;;;18.18;60.35;101313.47;5033435;28;20116;-67
2022/05/25 06:31:28;;;;;;;13.88;7.10;;;;;;;18.33;61.12;101312.97;5032902;28;20144;-67
2022/05/25 06:33:54;;;;;;;9.50;6.45;;;;;;;18.02;60.79;101316.63;5033281;28;20041;-67
2022/05/25 06:36:22;;;;;;;11.93;6.50;;;;;;;18.28;60.78;101315.22;5031563;28;20082;-67
2022/05/25 06:38:48;;;;;;;13.48;6.93;;;;;;;18.41;62.03;101308.72;5028954;28;20032;-67
2022/05/25 06:41:14;;;;;;;9.18;6.72;;;;;;;18.84;59.79;101311.16;5028490;28;20529;-68
2022/05/25 06:43:40;;;;;;;9.63;6.75;;;;;;;18.36;60.83;101312.66;5012669;28;20115;-67
2022/05/25 06:46:07;;;;;;;11.55;6.90;;;;;;;17.80;61.86;101326.59;5012623;28;20041;-67
2022/05/25 06:48:33;;;;;;;9.82;6.57;;;;;;;18.40;60.99;101334.88;5013543;28;20037;-68
2022/05/25 06:51:08;;;;;;;8.93;6.63;;;;;;;18.76;60.78;101329.91;5052060;28;20068;-67
2022/05/25 06:53:34;;;;;;;10.40;6.88;;;;;;;18.27;60.55;101321.63;5051820;28;20133;-68
2022/05/25 06:55:59;;;;;;;9.02;7.07;;;;;;;18.77;62.16;101329.75;5052688;28;20044;-67
2022/05/25 06:58:25;;;;;;;9.05;6.50;;;;;;;19.22;59.15;101334.66;5051623;28;20036;-67
2022/05/25 07:00:50;;;;;;;10.73;7.00;;;;;;;19.19;58.01;101337.66;5052351;28;20032;-67
2022/05/25 07:03:15;;;;;;;11.48;6.90;;;;;;;18.89;59.72;101344.88;5051203;28;20521;-67
2022/05/25 07:05:41;;;;;;;9.85;6.85;;;;;;;19.48;58.77;101343.09;5053114;28;20049;-67
2022/05/25 07:08:06;;;;;;;16.10;6.30;;;;;;;19.21;58.64;101351.03;5050780;28;20033;-67
2022/05/25 07:10:32;;;;;;;11.18;6.60;;;;;;;19.34;59.89;101348.94;5052031;28;20048;-67
2022/05/25 07:12:57;;;;;;;11.73;6.10;;;;;;;19.19;58.30;101347.63;5052054;28;20041;-67
2022/05/25 07:15:23;;;;;;;10.55;6.57;;;;;;;20.44;56.39;101344.75;5051772;28;20062;-68
2022/05/25 07:17:48;;;;;;;8.45;6.85;;;;;;;19.53;57.42;101351.63;5051573;28;20119;-68
2022/05/25 07:20:13;;;;;;;11.75;6.00;;;;;;;18.79;59.63;101359.34;5051129;28;20052;-67
2022/05/25 07:22:40;;;;;;;10.85;6.68;;;;;;;18.64;60.66;101358.84;5035003;28;20111;-68
2022/05/25 07:25:06;;;;;;;9.48;5.95;;;;;;;18.33;61.08;101356.16;5030489;28;20045;-67
2022/05/25 07:27:31;;;;;;;14.13;6.10;;;;;;;19.23;59.89;101360.72;5030249;28;20045;-68
2022/05/25 07:29:57;;;;;;;9.98;6.50;;;;;;;19.17;60.82;101361.28;5031949;28;20045;-68
2022/05/25 07:32:22;;;;;;;7.43;5.70;;;;;;;19.39;59.42;101360.16;5031273;28;20032;-68
2022/05/25 07:34:57;;;;;;;6.80;5.35;;;;;;;20.04;59.56;101371.25;5032887;28;20783;-68
2022/05/25 07:37:26;;;;;;;6.63;5.43;;;;;;;20.12;56.11;101366.81;5032001;28;20046;-68
2022/05/25 07:40:01;;;;;;;7.30;5.72;;;;;;;18.54;58.87;101366.91;5032822;28;20053;-67
2022/05/25 07:42:29;;;;;;;7.90;5.93;;;;;;;19.01;57.81;101367.22;5031811;28;20083;-67
2022/05/25 07:44:57;;;;;;;8.07;5.50;;;;;;;19.69;55.86;101367.31;5030791;28;20049;-68
2022/05/25 07:47:23;;;;;;;7.43;5.35;;;;;;;19.05;56.77;101365.97;5030631;28;20056;-69
2022/05/25 07:49:49;;;;;;;7.03;5.38;;;;;;;19.97;56.46;101367.41;5041774;28;20107;-68
2022/05/25 07:52:15;;;;;;;8.13;5.30;;;;;;;18.35;58.89;101367.69;5050982;28;20050;-69
2022/05/25 07:54:42;;;;;;;9.93;4.95;;;;;;;19.97;55.68;101372.81;5052856;28;20865;-68
2022/05/25 07:57:08;;;;;;;9.90;5.18;;;;;;;19.57;57.14;101380.09;5054445;28;20120;-68
2022/05/25 07:59:34;;;;;;;7.88;4.95;;;;;;;19.60;56.80;101370.88;5056144;28;20041;-68
2022/05/25 08:07:34;;;;;;;5.82;4.35;;;;;;;19.07;57.27;101379.31;5055842;28;20044;-68
2022/05/25 08:10:14;;;;;;;8.60;5.05;;;;;;;19.12;57.01;101385.16;5054022;28;20687;-68
2022/05/25 08:12:40;;;;;;;6.30;4.45;;;;;;;19.82;56.55;101384.09;5056420;28;20922;-67
2022/05/25 08:15:08;;;;;;;7.30;5.15;;;;;;;20.25;55.13;101382.75;5054347;28;20075;-67
2022/05/25 08:17:34;;;;;;;6.88;5.15;;;;;;;19.05;56.11;101378.63;5055526;28;20534;-69
2022/05/25 08:20:00;;;;;;;12.30;5.88;;;;;;;19.68;56.73;101384.56;5054881;28;20029;-69
2022/05/25 08:22:26;;;;;;;11.80;5.38;;;;;;;20.86;54.50;101376.81;5038901;28;20858;-67
2022/05/25 08:24:52;;;;;;;8.75;5.70;;;;;;;20.56;53.72;101368.97;5035414;28;20033;-69
2022/05/25 08:27:17;;;;;;;9.27;5.53;;;;;;;20.11;56.36;101380.50;5034572;28;20033;-70
2022/05/25 08:29:43;;;;;;;9.20;5.72;;;;;;;19.78;56.61;101373.69;5035580;28;20422;-69
2022/05/25 08:32:09;;;;;;;8.63;5.50;;;;;;;19.71;54.35;101378.00;5028533;28;20116;-68
2022/05/25 08:34:35;;;;;;;8.30;5.80;;;;;;;20.72;55.51;101365.63;5014403;28;20045;-70
2022/05/25 08:37:01;;;;;;;10.18;5.45;;;;;;;21.78;53.09;101364.88;5018393;28;20072;-67
2022/05/25 08:39:27;;;;;;;9.30;5.38;;;;;;;21.55;52.59;101356.38;5015574;28;20891;-68
2022/05/25 08:41:56;;;;;;;7.50;5.45;;;;;;;20.78;52.00;101363.16;5014766;28;20053;-69
2022/05/25 08:44:23;;;;;;;5.75;5.00;;;;;;;21.28;52.63;101354.56;5015183;28;20567;-69
2022/05/25 08:46:55;;;;;;;8.52;5.35;;;;;;;21.14;53.09;101355.97;5030958;28;20436;-68
2022/05/25 08:49:21;;;;;;;8.43;5.47;;;;;;;20.05;54.15;101362.97;5016957;28;20430;-68
2022/05/25 08:51:50;;;;;;;9.18;5.25;;;;;;;19.83;55.04;101366.88;5012985;28;20136;-69
2022/05/25 08:54:17;;;;;;;7.65;5.53;;;;;;;20.34;54.42;101362.91;5012204;28;20037;-70
2022/05/25 08:56:44;;;;;;;9.88;5.32;;;;;;;20.89;53.03;101365.69;5013194;28;20760;-68
2022/05/25 08:59:18;;;;;;;7.75;4.55;;;;;;;21.13;54.11;101367.78;5013179;28;20820;-70
2022/05/25 09:01:51;;;;;;;8.32;4.25;;;;;;;21.49;52.43;101365.16;5014738;28;20363;-69
2022/05/25 09:04:35;;;;;;;5.63;4.70;;;;;;;20.78;51.38;101368.56;5040979;28;20029;-70
2022/05/25 09:07:23;;;;;;;6.10;4.50;;;;;;;20.53;53.62;101371.97;5021736;28;20029;-70
2022/05/25 09:09:51;;;;;;;7.05;5.55;;;;;;;19.15;55.99;101377.63;5034128;28;20116;-69
2022/05/25 09:12:28;;;;;;;12.07;5.43;;;;;;;19.33;56.32;101372.41;5032512;28;20079;-69
2022/05/25 09:15:10;;;;;;;8.95;5.40;;;;;;;19.69;56.91;101372.72;5032867;28;20029;-69
2022/05/25 09:17:41;;;;;;;8.57;5.70;;;;;;;20.62;54.67;101369.22;5034770;28;20083;-70
2022/05/25 09:20:09;;;;;;;6.93;4.83;;;;;;;20.39;51.86;101363.31;5034012;28;20037;-69
2022/05/25 09:22:35;;;;;;;6.78;4.70;;;;;;;21.32;51.45;101364.13;5032758;28;20144;-70
2022/05/25 09:25:04;;;;;;;9.23;5.20;;;;;;;20.66;50.97;101367.94;5032252;28;20905;-68
2022/05/25 09:27:44;;;;;;;5.50;5.00;;;;;;;20.47;52.61;101362.59;5024785;28;20037;-68
2022/05/25 09:30:11;;;;;;;10.13;5.28;;;;;;;20.87;54.08;101358.69;5030263;28;20044;-68
2022/05/25 09:32:44;;;;;;;7.22;4.35;;;;;;;20.88;54.30;101366.69;5032970;28;20033;-68
2022/05/25 09:35:24;;;;;;;7.78;4.07;;;;;;;20.57;52.72;101373.41;5032535;28;20041;-67
2022/05/25 09:38:01;;;;;;;4.07;3.67;;;;;;;20.24;50.47;101372.91;5032509;28;20049;-67
2022/05/25 09:40:49;;;;;;;6.60;4.28;;;;;;;20.53;51.20;101372.81;5032682;28;20040;-68
2022/05/25 09:43:20;;;;;;;6.97;4.82;;;;;;;20.01;52.69;101377.81;5032929;28;20080;-67
2022/05/25 09:45:51;;;;;;;11.13;4.82;;;;;;;20.95;52.09;101366.94;5032910;28;20048;-68
2022/05/25 09:48:29;;;;;;;5.00;4.15;;;;;;;21.73;50.84;101368.06;5030164;28;20123;-71
2022/05/25 09:51:13;;;;;;;5.47;4.18;;;;;;;22.21;49.36;101369.47;5051656;28;20090;-68
2022/05/25 09:53:48;;;;;;;4.40;4.00;;;;;;;21.10;48.73;101380.84;5052180;28;20504;-68
2022/05/25 09:56:28;;;;;;;7.03;4.80;;;;;;;19.63;51.97;101392.25;5052022;28;20151;-66
2022/05/25 09:58:58;;;;;;;9.90;5.95;;;;;;;19.23;52.95;101393.19;5050664;28;20040;-69
2022/05/25 10:01:44;;;;;;;8.60;5.90;;;;;;;18.96;54.14;101391.13;5050087;28;20122;-70
2022/05/25 10:04:15;;;;;;;8.05;5.30;;;;;;;18.60;54.92;101401.47;5049350;28;20230;-69
2022/05/25 10:06:52;;;;;;;9.15;6.10;;;;;;;19.17;53.64;101400.97;5052704;28;20052;-68
2022/05/25 10:09:26;;;;;;;7.85;5.85;;;;;;;18.34;54.71;101405.63;5051826;28;20040;-68
2022/05/25 10:11:55;;;;;;;8.55;5.68;;;;;;;18.28;54.60;101408.88;5051822;28;20408;-68
2022/05/25 10:14:28;;;;;;;8.63;6.15;;;;;;;18.24;53.66;101404.72;5051863;28;21051;-70
2022/05/25 10:17:07;;;;;;;8.65;6.30;;;;;;;18.57;53.09;101406.28;5049018;28;20040;-68
2022/05/25 10:19:43;;;;;;;12.13;5.68;;;;;;;18.67;52.37;101404.47;5031527;28;21015;-68
2022/05/25 10:22:28;;;;;;;12.07;5.30;;;;;;;19.59;51.58;101405.19;5031740;28;20048;-69
2022/05/25 10:25:03;;;;;;;7.82;4.88;;;;;;;20.87;49.30;101400.22;5032216;28;20040;-68
2022/05/25 10:27:43;;;;;;;7.70;4.70;;;;;;;21.19;49.49;101402.47;5025872;28;20042;-68
2022/05/25 10:39:29;;;;;;;6.75;5.90;;;;;;;20.15;47.13;101403.59;5013968;28;20065;-68
2022/05/25 10:42:09;;;;;;;5.68;5.10;;;;;;;21.06;46.75;101385.69;5027751;28;20098;-68
2022/05/25 10:44:56;;;;;;;6.05;4.57;;;;;;;21.98;43.93;101388.13;5018988;28;20045;-69
2022/05/25 10:47:30;;;;;;;7.10;4.90;;;;;;;22.77;44.41;101390.84;5025399;28;20377;-68
2022/05/25 10:49:55;;;;;;;4.93;3.00;;;;;;;22.10;42.64;101387.88;5023536;28;20073;-69
2022/05/25 10:52:30;;;;;;;8.00;3.13;;;;;;;21.88;44.58;101378.38;5013819;28;21109;-69
2022/05/25 10:54:56;;;;;;;4.70;2.78;;;;;;;21.32;44.34;101395.84;5011733;28;20033;-69
2022/05/25 10:57:59;;;;;;;5.30;2.90;;;;;;;20.93;43.39;101380.66;5012839;28;20038;-70
2022/05/25 11:00:55;;;;;;;2.88;2.65;;;;;;;20.93;44.83;101379.75;5027702;28;20040;-70
2022/05/25 11:03:49;;;;;;;4.35;3.00;;;;;;;21.21;45.50;101373.31;5029783;28;20041;-70
2022/05/25 11:06:25;;;;;;;3.28;2.22;;;;;;;20.94;42.90;101355.22;5028846;28;20047;-70
2022/05/25 11:09:27;;;;;;;2.15;1.38;;;;;;;21.04;43.01;101357.03;5030803;28;20080;-70
2022/05/25 11:12:19;;;;;;;2.92;1.67;;;;;;;20.52;43.46;101368.41;5023625;28;20142;-71
2022/05/25 11:14:47;;;;;;;2.13;1.33;;;;;;;19.90;45.53;101380.69;5029153;28;20041;-70
2022/05/25 11:17:35;;;;;;;2.83;1.70;;;;;;;19.00;47.35;101370.94;5029926;28;20036;-69
2022/05/25 11:20:14;;;;;;;1.67;1.40;;;;;;;18.96;45.93;101374.91;5029960;28;20120;-70
2022/05/25 11:22:54;;;;;;;1.92;1.38;;;;;;;18.72;48.62;101380.66;5012190;28;20122;-69
2022/05/25 11:25:24;;;;;;;3.80;1.45;;;;;;;18.29;48.67;101375.47;5030438;28;20051;-69
2022/05/25 11:28:09;;;;;;;1.60;1.02;;;;;;;18.71;47.89;101380.78;5030249;28;20047;-70
2022/05/25 11:30:43;;;;;;;3.08;1.58;;;;;;;18.27;47.56;101389.13;5023273;28;20041;-70
2022/05/25 11:33:36;;;;;;;2.55;2.35;;;;;;;18.07;47.42;101392.66;5009115;28;20069;-69
2022/05/25 11:36:25;;;;;;;5.07;2.45;;;;;;;18.88;46.52;101393.66;5008908;28;20096;-69
2022/05/25 11:38:56;;;;;;;3.88;3.35;;;;;;;19.65;44.64;101384.84;5009609;28;20076;-69
2022/05/25 11:41:38;;;;;;;3.00;2.67;;;;;;;19.57;45.41;101380.09;5009879;28;20041;-70
2022/05/25 11:44:35;;;;;;;3.28;3.08;;;;;;;19.15;45.41;101380.34;5009165;28;20050;-69
2022/05/25 11:47:35;;;;;;;4.50;3.42;;;;;;;19.11;45.81;101380.75;5009135;28;20076;-69
2022/05/25 11:50:30;;;;;;;4.25;3.42;;;;;;;19.19;46.85;101375.53;5033091;28;20155;-70
2022/05/25 11:53:08;;;;;;;4.55;4.15;;;;;;;19.59;46.63;101379.97;5049747;28;20087;-70
2022/05/25 11:55:46;;;;;;;5.13;4.60;;;;;;;19.25;45.61;101377.66;5047426;28;20714;-69
2022/05/25 11:58:22;;;;;;;4.63;4.22;;;;;;;19.23;45.96;101386.88;5048870;28;20416;-70
2022/05/25 12:01:19;;;;;;;4.93;4.43;;;;;;;18.84;48.66;101386.81;5038578;28;20118;-69
2022/05/25 12:04:24;;;;;;;5.65;4.38;;;;;;;17.96;51.19;101390.03;5030893;28;20839;-70